createdAt,value
2023-09-17T00:00:18.151Z,63.021396
2023-09-17T00:05:18.037Z,63.354946
2023-09-17T00:10:18.410Z,62.923404
2023-09-17T00:15:18.222Z,63.021396
2023-09-17T00:20:18.111Z,63.256811
2023-09-17T00:25:18.108Z,63.158677
2023-09-17T00:30:18.264Z,63.158677
2023-09-17T00:35:18.134Z,63.158677
2023-09-17T04:30:18.024Z,61.354649
2023-09-17T04:35:17.809Z,61.256224
2023-09-17T04:40:17.660Z,61.256224
2023-09-17T04:45:17.702Z,61.256224
2023-09-17T04:50:18.011Z,61.256224
2023-09-17T04:55:17.717Z,61.256224
2023-09-17T05:00:17.728Z,61.157800
2023-09-17T05:05:17.698Z,61.157800
2023-09-17T05:10:17.830Z,61.157800
2023-09-17T05:15:17.732Z,61.059374
2023-09-17T05:20:17.658Z,61.059374
2023-09-17T05:25:17.677Z,61.059374
2023-09-17T05:30:17.700Z,61.280296
2023-09-17T05:35:17.677Z,61.280296
2023-09-17T05:40:18.134Z,61.378859
2023-09-17T05:45:18.401Z,61.280296
2023-09-17T05:50:17.753Z,61.181733
2023-09-17T05:55:17.747Z,60.984605
2023-09-17T06:00:18.877Z,60.984605
2023-09-17T06:05:17.822Z,60.984605
2023-09-17T06:10:17.916Z,60.886040
2023-09-17T06:15:17.743Z,60.787476
2023-09-17T06:20:18.045Z,60.787476
2023-09-17T06:25:17.694Z,60.787476
2023-09-17T06:30:17.988Z,60.787476
2023-09-17T06:35:17.790Z,60.688911
2023-09-17T06:40:17.959Z,60.491780
2023-09-17T06:45:17.878Z,60.393214
2023-09-17T06:50:18.307Z,60.393214
2023-09-17T06:55:18.003Z,60.491780
2023-09-17T07:00:18.404Z,60.393214
2023-09-17T07:05:18.057Z,60.294648
2023-09-17T07:10:17.972Z,60.196081
2023-09-17T07:15:17.940Z,59.998947
2023-09-17T07:20:17.923Z,59.801812
2023-09-17T07:25:18.424Z,59.604675
2023-09-17T07:30:18.158Z,59.506107
2023-09-17T07:35:18.071Z,59.189233
2023-09-17T07:40:20.078Z,59.287664
2023-09-17T07:45:18.048Z,59.604675
2023-09-17T07:50:18.029Z,59.407538
2023-09-17T07:55:18.023Z,59.111829
2023-09-17T08:00:19.927Z,59.013259
2023-09-17T08:05:18.141Z,58.914688
2023-09-17T08:10:18.137Z,58.816117
2023-09-17T08:15:18.459Z,58.618975
2023-09-17T08:20:18.027Z,58.421831
2023-09-17T08:25:18.080Z,58.323258
2023-09-17T08:30:18.198Z,58.224686
2023-09-17T08:35:18.272Z,57.811156
2023-09-17T08:40:18.191Z,57.909592
2023-09-17T08:45:18.341Z,57.811156
2023-09-17T08:50:18.331Z,57.811156
2023-09-17T08:55:18.153Z,57.712719
2023-09-17T09:00:16.488Z,57.712719
2023-09-17T09:05:18.208Z,57.515845
2023-09-17T09:10:18.645Z,57.515845
2023-09-17T09:15:18.260Z,57.417407
2023-09-17T09:20:18.198Z,57.318969
2023-09-17T09:25:18.257Z,57.122092
2023-09-17T09:30:18.446Z,57.023653
2023-09-17T09:35:18.184Z,56.826775
2023-09-17T09:40:18.244Z,56.728335
2023-09-17T09:45:18.421Z,56.531454
2023-09-17T09:50:18.294Z,56.531454
2023-09-17T09:55:18.184Z,56.433013
2023-09-17T10:00:19.442Z,56.137687
2023-09-17T10:05:18.243Z,56.039245
2023-09-17T10:10:18.234Z,56.039245
2023-09-17T10:15:18.310Z,55.940802
2023-09-17T10:20:16.702Z,55.940802
2023-09-17T10:25:17.466Z,55.743916
2023-09-17T10:30:16.536Z,55.232082
2023-09-17T10:35:16.585Z,55.232082
2023-09-17T10:40:16.497Z,55.645472
2023-09-17T10:45:16.756Z,55.842359
2023-09-17T10:50:16.369Z,55.842359
2023-09-17T10:55:16.508Z,55.625307
2023-09-17T11:00:16.508Z,55.821917
2023-09-17T11:05:16.238Z,55.821917
2023-09-17T11:10:29.627Z,56.018526
2023-09-17T11:15:16.369Z,56.215133
2023-09-17T11:20:16.469Z,56.313436
2023-09-17T11:25:16.359Z,56.411739
2023-09-17T11:30:16.829Z,56.510041
2023-09-17T11:35:16.713Z,57.122092
2023-09-17T11:40:16.432Z,57.122092
2023-09-17T11:45:16.553Z,57.318969
2023-09-17T11:50:16.492Z,57.614282
2023-09-17T11:55:16.453Z,57.909592
2023-09-17T12:00:17.789Z,58.204899
2023-09-17T12:05:16.550Z,58.598637
2023-09-17T12:10:16.543Z,58.992369
2023-09-17T12:15:16.502Z,59.484527
2023-09-17T12:20:16.640Z,59.878247
2023-09-17T12:25:16.546Z,60.688911
2023-09-17T12:30:16.714Z,60.984605
2023-09-17T12:35:16.723Z,61.477422
2023-09-17T12:40:16.785Z,61.674547
2023-09-17T12:45:16.548Z,61.871670
2023-09-17T12:50:16.612Z,61.970231
2023-09-17T12:55:16.513Z,62.265913
2023-09-17T13:00:16.853Z,62.463033
2023-09-17T13:05:16.642Z,62.561593
2023-09-17T13:10:16.750Z,63.373063
2023-09-17T13:15:16.808Z,63.570452
2023-09-17T13:20:17.046Z,63.767840
2023-09-17T13:25:16.641Z,64.063919
2023-09-17T13:30:16.935Z,64.557379
2023-09-17T13:35:16.881Z,64.754761
2023-09-17T13:40:17.369Z,65.467562
2023-09-17T13:45:16.724Z,66.060512
2023-09-17T13:50:16.989Z,66.258160
2023-09-17T13:55:16.643Z,66.752276
2023-09-17T14:00:17.757Z,67.048743
2023-09-17T14:05:16.952Z,67.444028
2023-09-17T14:10:19.349Z,68.157553
2023-09-17T14:15:16.877Z,68.234587
2023-09-17T14:20:17.262Z,68.751283
2023-09-17T14:25:17.106Z,69.147098
2023-09-17T14:30:17.232Z,68.603488
2023-09-17T14:35:16.835Z,68.277512
2023-09-17T14:40:17.151Z,69.542909
2023-09-17T14:45:17.055Z,70.037668
2023-09-17T14:50:16.882Z,68.671675
2023-09-17T14:55:16.778Z,69.096884
2023-09-17T15:00:17.226Z,70.235570
2023-09-17T15:05:16.900Z,70.013285
2023-09-17T15:10:16.918Z,69.984978
2023-09-17T15:15:16.932Z,70.606166
2023-09-17T15:20:18.476Z,71.422965
2023-09-17T15:25:17.039Z,72.238067
2023-09-17T15:30:17.257Z,72.214543
2023-09-17T15:35:19.753Z,71.662429
2023-09-17T15:40:16.937Z,72.610327
2023-09-17T15:45:17.290Z,72.254451
2023-09-17T15:50:17.082Z,72.779987
2023-09-17T15:55:17.026Z,72.747795
2023-09-17T16:00:17.899Z,73.175215
2023-09-17T16:05:16.985Z,71.884113
2023-09-17T16:10:17.130Z,72.945130
2023-09-17T16:15:16.990Z,73.105669
2023-09-17T16:20:17.382Z,73.734462
2023-09-17T16:25:16.988Z,73.261514
2023-09-17T16:30:17.379Z,73.359897
2023-09-17T16:35:17.326Z,74.756083
2023-09-17T16:40:17.298Z,74.386484
2023-09-17T16:45:17.324Z,73.558751
2023-09-17T16:50:17.103Z,73.210218
2023-09-17T16:55:17.057Z,73.805526
2023-09-17T17:00:17.865Z,73.175215
2023-09-17T17:05:17.071Z,71.960133
2023-09-17T17:10:17.058Z,71.265602
2023-09-17T17:15:17.160Z,71.589700
2023-09-17T17:20:17.659Z,71.291247
2023-09-17T17:25:17.073Z,71.191763
2023-09-17T17:30:17.481Z,71.398271
2023-09-17T17:35:17.411Z,71.502032
2023-09-17T17:40:17.688Z,71.602589
2023-09-17T17:45:17.418Z,71.502716
2023-09-17T17:50:17.270Z,71.202798
2023-09-17T17:55:17.247Z,71.402844
2023-09-17T18:00:18.331Z,71.003352
2023-09-17T18:05:17.265Z,70.704074
2023-09-17T18:10:17.333Z,70.704074
2023-09-17T18:15:17.839Z,70.903564
2023-09-17T18:20:17.264Z,71.203098
2023-09-17T18:25:17.250Z,70.803819
2023-09-17T18:30:17.691Z,70.803819
2023-09-17T18:35:17.330Z,70.704074
2023-09-17T18:40:17.324Z,71.203098
2023-09-17T18:45:17.650Z,70.903564
2023-09-17T18:50:17.606Z,71.103053
2023-09-17T18:55:17.303Z,71.402844
2023-09-17T19:00:17.474Z,71.402844
2023-09-17T19:05:17.442Z,71.302971
2023-09-17T19:10:17.501Z,71.302971
2023-09-17T19:15:17.411Z,71.700000
2023-09-17T19:20:17.671Z,71.402844
2023-09-17T19:25:17.494Z,71.302971
2023-09-17T19:30:18.433Z,71.203098
2023-09-17T19:35:17.606Z,71.203098
2023-09-17T19:40:17.737Z,71.203098
2023-09-17T19:45:17.590Z,70.903564
2023-09-17T19:50:18.063Z,71.203098
2023-09-17T19:55:17.703Z,71.103225
2023-09-17T20:00:18.734Z,71.300000
2023-09-17T20:05:17.583Z,71.103225
2023-09-17T20:10:17.602Z,71.103225
2023-09-17T20:15:17.731Z,71.203098
2023-09-17T20:20:17.734Z,71.500000
2023-09-17T20:25:17.575Z,71.500000
2023-09-17T20:30:17.927Z,71.203098
2023-09-17T20:35:17.702Z,71.302971
2023-09-17T20:40:17.603Z,71.302971
2023-09-17T20:45:18.493Z,71.302971
2023-09-17T20:50:17.939Z,71.700000
2023-09-17T20:55:18.032Z,71.300000
2023-09-17T21:00:18.280Z,70.803605
2023-09-17T21:05:18.123Z,70.603859
2023-09-17T21:10:17.671Z,70.205348
2023-09-17T21:15:17.900Z,70.205348
2023-09-17T21:20:17.733Z,70.205348
2023-09-17T21:25:17.707Z,70.205348
2023-09-17T21:30:18.086Z,70.205348
2023-09-17T21:35:17.828Z,70.205348
2023-09-17T21:40:17.985Z,70.105603
2023-09-17T21:45:17.931Z,69.605185
2023-09-17T21:50:17.777Z,69.505569
2023-09-17T21:55:17.798Z,69.405952
2023-09-17T22:00:19.635Z,69.306335
2023-09-17T22:05:18.328Z,69.206718
2023-09-17T22:10:18.154Z,68.605126
2023-09-17T22:15:18.294Z,67.902187
2023-09-17T22:20:17.900Z,67.703472
2023-09-17T22:25:17.701Z,67.504757
2023-09-17T22:30:17.867Z,67.405399
2023-09-17T22:35:17.840Z,66.800571
2023-09-17T22:40:17.874Z,66.502890
2023-09-17T22:45:18.172Z,65.995476
2023-09-17T22:50:17.985Z,65.797286
2023-09-17T22:55:18.111Z,65.797286
2023-09-17T23:00:17.918Z,65.995476
2023-09-17T23:05:18.367Z,66.094571
2023-09-17T23:10:17.962Z,66.292760
2023-09-17T23:15:18.432Z,66.701344
2023-09-17T23:20:18.118Z,66.094571
2023-09-17T23:25:17.942Z,65.782557
2023-09-17T23:30:17.963Z,66.178399
2023-09-17T23:35:17.983Z,66.574237
2023-09-17T23:40:17.958Z,66.871113
2023-09-17T23:45:18.089Z,66.970071
2023-09-17T23:50:18.065Z,67.069029
2023-09-17T23:55:18.043Z,67.266945
